createdAt,value
2022-09-20T00:01:44.355Z,50.25
2022-09-20T00:04:10.086Z,50.41
2022-09-20T00:06:35.874Z,50.44
2022-09-20T00:09:02.509Z,50.30
2022-09-20T00:11:29.727Z,50.30
2022-09-20T00:13:56.495Z,50.30
2022-09-20T00:16:23.965Z,50.33
2022-09-20T00:18:50.312Z,50.27
2022-09-20T00:21:17.071Z,50.31
2022-09-20T00:23:42.881Z,50.50
2022-09-20T00:26:08.466Z,50.36
2022-09-20T00:28:34.142Z,50.28
2022-09-20T00:30:59.960Z,50.36
2022-09-20T00:33:45.551Z,50.30
2022-09-20T00:36:11.449Z,50.33
2022-09-20T00:38:37.023Z,50.17
2022-09-20T00:41:02.648Z,50.43
2022-09-20T00:43:44.768Z,50.27
2022-09-20T00:46:17.147Z,50.22
2022-09-20T00:48:43.103Z,50.33
2022-09-20T00:51:09.863Z,50.31
2022-09-20T00:53:37.676Z,50.28
2022-09-20T00:56:04.789Z,50.38
2022-09-20T00:58:30.955Z,50.28
2022-09-20T01:00:56.640Z,50.27
2022-09-20T01:03:22.395Z,50.34
2022-09-20T01:05:48.324Z,50.32
2022-09-20T01:08:13.898Z,50.22
2022-09-20T01:10:39.503Z,50.30
2022-09-20T01:13:05.157Z,50.25
2022-09-20T01:15:30.783Z,50.24
2022-09-20T01:17:56.704Z,50.47
2022-09-20T01:20:26.795Z,50.37
2022-09-20T01:22:56.902Z,50.17
2022-09-20T01:25:25.406Z,50.23
2022-09-20T01:27:51.515Z,50.20
2022-09-20T01:30:25.888Z,50.28
2022-09-20T01:32:56.407Z,50.22
2022-09-20T01:35:22.456Z,50.11
2022-09-20T01:38:07.995Z,50.35
2022-09-20T01:40:53.552Z,50.34
2022-09-20T01:43:25.043Z,50.20
2022-09-20T01:45:50.683Z,50.04
2022-09-20T01:48:21.063Z,50.34
2022-09-20T01:51:06.616Z,50.24
2022-09-20T01:53:38.243Z,50.31
2022-09-20T01:56:09.779Z,50.24
2022-09-20T01:59:19.465Z,50.41
2022-09-20T02:02:00.893Z,50.24
2022-09-20T02:04:46.465Z,50.33
2022-09-20T02:07:32.006Z,50.33
2022-09-20T02:10:06.845Z,50.35
2022-09-20T02:12:38.204Z,50.26
2022-09-20T02:15:23.756Z,50.33
2022-09-20T02:18:09.508Z,50.42
2022-09-20T02:20:53.163Z,50.34
2022-09-20T02:23:38.698Z,50.33
2022-09-20T02:26:10.308Z,50.26
2022-09-20T02:28:55.847Z,50.22
2022-09-20T02:31:27.832Z,50.35
2022-09-20T02:34:04.346Z,50.16
2022-09-20T02:36:39.108Z,50.25
2022-09-20T02:39:20.715Z,50.28
2022-09-20T02:41:51.023Z,50.15
2022-09-20T02:44:25.802Z,50.32
2022-09-20T02:47:01.468Z,50.27
2022-09-20T02:49:47.025Z,50.14
2022-09-20T02:52:32.581Z,50.38
2022-09-20T02:55:07.163Z,50.25
2022-09-20T02:57:35.972Z,50.20
2022-09-20T03:00:05.259Z,50.35
2022-09-20T03:05:13.960Z,50.30
2022-09-20T03:07:43.371Z,50.04
2022-09-20T03:10:28.922Z,50.31
2022-09-20T03:12:58.543Z,50.17
2022-09-20T03:15:40.228Z,50.22
2022-09-20T03:18:07.735Z,50.29
2022-09-20T03:20:53.280Z,50.13
2022-09-20T03:23:23.146Z,50.34
2022-09-20T03:26:08.704Z,50.35
2022-09-20T03:28:45.807Z,50.16
2022-09-20T03:31:16.369Z,50.15
2022-09-20T03:33:54.803Z,50.33
2022-09-20T03:36:40.348Z,50.27
2022-09-20T03:39:13.647Z,50.24
2022-09-20T03:41:41.986Z,50.27
2022-09-20T03:44:26.608Z,50.27
2022-09-20T03:46:56.454Z,50.30
2022-09-20T03:49:42.035Z,50.09
2022-09-20T03:52:27.697Z,50.36
2022-09-20T03:54:57.643Z,50.25
2022-09-20T03:57:43.185Z,50.33
2022-09-20T04:00:28.747Z,50.33
2022-09-20T04:02:58.620Z,50.11
2022-09-20T04:05:44.881Z,50.33
2022-09-20T04:08:15.640Z,50.35
2022-09-20T04:11:02.311Z,50.19
2022-09-20T04:13:33.918Z,50.28
2022-09-20T04:16:19.659Z,50.08
2022-09-20T04:18:48.612Z,50.29
2022-09-20T04:21:24.403Z,50.25
2022-09-20T04:24:09.946Z,50.16
2022-09-20T04:26:37.212Z,50.21
2022-09-20T04:29:22.756Z,50.13
2022-09-20T04:31:53.957Z,50.39
2022-09-20T04:34:44.920Z,50.17
2022-09-20T04:37:22.208Z,50.39
2022-09-20T04:39:50.248Z,50.12
2022-09-20T04:42:23.488Z,50.19
2022-09-20T04:45:09.032Z,50.19
2022-09-20T04:47:54.795Z,50.31
2022-09-20T04:50:40.366Z,50.26
2022-09-20T04:53:18.192Z,50.15
2022-09-20T04:55:45.685Z,50.17
2022-09-20T04:58:13.943Z,50.03
2022-09-20T05:01:00.179Z,50.12
2022-09-20T05:03:45.773Z,50.07
2022-09-20T05:06:31.320Z,50.04
2022-09-20T05:09:16.852Z,50.19
2022-09-20T05:11:46.525Z,49.98
2022-09-20T05:14:22.090Z,49.95
2022-09-20T05:16:57.365Z,50.08
2022-09-20T05:19:42.308Z,50.03
2022-09-20T05:22:11.593Z,50.06
2022-09-20T05:24:42.511Z,50.01
2022-09-20T05:27:28.423Z,49.86
2022-09-20T05:30:03.142Z,49.80
2022-09-20T05:32:37.145Z,49.97
2022-09-20T05:35:22.691Z,50.03
2022-09-20T05:37:50.092Z,50.01
2022-09-20T05:40:31.809Z,49.64
2022-09-20T05:43:13.319Z,49.44
2022-09-20T05:45:58.974Z,49.68
2022-09-20T05:48:31.324Z,49.55
2022-09-20T05:51:03.090Z,49.76
2022-09-20T05:53:50.048Z,49.96
2022-09-20T05:56:35.637Z,49.96
2022-09-20T06:02:12.728Z,49.82
2022-09-20T06:04:42.267Z,49.98
2022-09-20T06:07:14.756Z,49.91
2022-09-20T06:10:00.583Z,49.98
2022-09-20T06:12:44.598Z,49.92
2022-09-20T06:15:14.955Z,49.45
2022-09-20T06:17:43.224Z,49.73
2022-09-20T06:20:12.498Z,49.78
2022-09-20T06:22:39.547Z,49.69
2022-09-20T06:25:11.799Z,49.38
2022-09-20T06:27:39.093Z,49.40
2022-09-20T06:30:05.657Z,49.53
2022-09-20T06:32:31.483Z,49.69
2022-09-20T06:34:57.416Z,49.92
2022-09-20T06:37:48.638Z,49.89
2022-09-20T06:40:51.310Z,50.28
2022-09-20T06:43:18.491Z,50.46
2022-09-20T06:45:44.483Z,50.37
2022-09-20T06:48:12.371Z,50.52
2022-09-20T06:50:38.479Z,50.63
2022-09-20T06:53:04.872Z,50.41
2022-09-20T06:55:31.635Z,50.40
2022-09-20T06:57:57.209Z,50.40
2022-09-20T07:00:22.836Z,50.38
2022-09-20T07:02:48.479Z,51.03
2022-09-20T07:05:15.347Z,51.98
2022-09-20T07:07:43.120Z,50.85
2022-09-20T07:10:10.700Z,50.66
2022-09-20T07:12:36.464Z,50.50
2022-09-20T07:15:41.859Z,50.46
2022-09-20T07:18:47.243Z,50.49
2022-09-20T07:21:52.667Z,50.47
2022-09-20T07:24:58.360Z,50.38
2022-09-20T07:28:04.350Z,50.52
2022-09-20T07:31:10.572Z,50.69
2022-09-20T07:40:41.852Z,50.43
2022-09-20T07:43:47.835Z,50.33
2022-09-20T07:53:19.135Z,50.58
2022-09-20T07:56:25.118Z,50.14
2022-09-20T08:09:02.782Z,50.06
2022-09-20T08:25:14.872Z,49.50
2022-09-20T08:28:20.870Z,49.34
2022-09-20T08:41:44.406Z,48.31
2022-09-20T08:54:49.619Z,48.52
2022-09-20T08:57:58.416Z,48.65
2022-09-20T09:07:37.495Z,48.45
2022-09-20T09:10:49.023Z,48.06
2022-09-20T09:20:28.911Z,48.62
2022-09-20T09:23:37.743Z,48.70
2022-09-20T09:32:36.700Z,48.59
2022-09-20T09:35:22.135Z,46.34
2022-09-20T09:37:56.264Z,45.58
2022-09-20T09:40:21.988Z,46.18
2022-09-20T09:42:49.343Z,46.14
2022-09-20T09:45:25.978Z,45.99
2022-09-20T09:47:51.852Z,46.15
2022-09-20T09:50:21.380Z,46.66
2022-09-20T09:53:04.878Z,46.44
2022-09-20T09:55:34.407Z,46.43
2022-09-20T09:58:03.311Z,46.56
2022-09-20T10:00:28.920Z,46.63
2022-09-20T10:03:12.720Z,46.79
2022-09-20T10:05:57.711Z,46.54
2022-09-20T10:11:07.213Z,46.57
2022-09-20T10:13:43.456Z,46.60
2022-09-20T10:16:13.873Z,46.77
2022-09-20T10:18:59.357Z,46.90
2022-09-20T10:21:30.783Z,46.93
2022-09-20T10:24:03.694Z,46.91
2022-09-20T10:26:38.699Z,47.05
2022-09-20T10:29:07.867Z,46.92
2022-09-20T10:31:46.522Z,46.95
2022-09-20T10:34:16.598Z,47.17
2022-09-20T10:36:45.207Z,47.23
2022-09-20T10:39:13.113Z,47.07
2022-09-20T10:42:04.886Z,47.48
2022-09-20T10:44:34.230Z,47.78
2022-09-20T10:47:19.496Z,47.65
2022-09-20T10:49:59.775Z,47.47
2022-09-20T10:52:45.195Z,47.27
2022-09-20T10:55:19.561Z,47.41
2022-09-20T10:57:51.726Z,47.49
2022-09-20T11:00:25.503Z,46.73
2022-09-20T11:02:55.199Z,46.61
2022-09-20T11:05:40.143Z,46.87
2022-09-20T11:08:11.131Z,46.25
2022-09-20T11:10:56.559Z,47.14
2022-09-20T11:13:42.043Z,47.16
2022-09-20T11:16:13.444Z,46.75
2022-09-20T11:18:44.141Z,47.50
2022-09-20T11:21:18.001Z,46.93
2022-09-20T11:24:01.878Z,46.69
2022-09-20T11:26:30.535Z,47.12
2022-09-20T11:28:58.500Z,47.07
2022-09-20T11:31:29.596Z,46.95
2022-09-20T11:33:58.451Z,46.92
2022-09-20T11:36:30.110Z,47.21
2022-09-20T11:38:56.988Z,47.26
2022-09-20T11:41:25.576Z,47.15
2022-09-20T11:43:51.114Z,47.22
2022-09-20T11:46:36.581Z,46.94
2022-09-20T11:49:03.220Z,46.90
2022-09-20T11:51:49.459Z,46.86
2022-09-20T11:54:19.181Z,46.48
2022-09-20T11:56:52.865Z,46.32
2022-09-20T11:59:22.300Z,46.86
2022-09-20T12:01:47.888Z,46.51
2022-09-20T12:04:32.248Z,46.48
2022-09-20T12:07:17.831Z,46.83
2022-09-20T12:09:44.694Z,46.20
2022-09-20T12:12:30.283Z,46.13
2022-09-20T12:14:56.141Z,46.61
2022-09-20T12:17:41.623Z,46.57
2022-09-20T12:20:27.053Z,46.53
2022-09-20T12:22:52.591Z,46.24
2022-09-20T12:25:35.009Z,46.40
2022-09-20T12:28:00.539Z,46.68
2022-09-20T12:30:26.083Z,46.28
2022-09-20T12:32:54.266Z,45.85
2022-09-20T12:38:31.121Z,46.51
2022-09-20T12:41:00.483Z,46.84
2022-09-20T12:43:27.089Z,46.72
2022-09-20T12:45:53.848Z,46.66
2022-09-20T12:48:19.448Z,46.57
2022-09-20T12:51:19.684Z,46.48
2022-09-20T12:53:57.644Z,46.48
2022-09-20T12:56:27.131Z,46.40
2022-09-20T12:58:53.887Z,46.82
2022-09-20T13:04:16.154Z,46.84
2022-09-20T13:06:41.711Z,47.20
2022-09-20T13:09:08.147Z,47.13
2022-09-20T13:11:41.546Z,46.80
2022-09-20T13:14:09.808Z,47.05
2022-09-20T13:19:15.852Z,47.42
2022-09-20T13:21:43.645Z,47.78
2022-09-20T13:24:11.175Z,47.24
2022-09-20T13:26:40.301Z,46.92
2022-09-20T13:29:06.595Z,47.46
2022-09-20T13:31:32.938Z,47.14
2022-09-20T13:34:18.460Z,47.28
2022-09-20T13:36:44.006Z,47.39
2022-09-20T13:39:19.204Z,47.24
2022-09-20T13:41:44.758Z,46.91
2022-09-20T13:44:13.829Z,46.78
2022-09-20T13:46:42.609Z,46.51
2022-09-20T13:49:10.883Z,45.92
2022-09-20T13:51:36.422Z,46.07
2022-09-20T13:54:21.315Z,46.11
2022-09-20T13:56:47.203Z,46.18
2022-09-20T13:59:19.203Z,46.08
2022-09-20T14:01:48.494Z,46.49
2022-09-20T14:04:14.495Z,46.72
2022-09-20T14:06:40.127Z,46.48
2022-09-20T14:09:10.714Z,46.59
2022-09-20T14:11:36.761Z,46.61
2022-09-20T14:14:02.844Z,46.83
2022-09-20T14:16:29.208Z,46.92
2022-09-20T14:18:54.819Z,46.67
2022-09-20T14:21:21.796Z,46.92
2022-09-20T14:23:52.546Z,47.09
2022-09-20T14:29:18.207Z,46.80
2022-09-20T14:31:44.086Z,47.06
2022-09-20T14:34:10.598Z,47.27
2022-09-20T14:36:36.159Z,48.05
2022-09-20T14:39:02.488Z,48.04
2022-09-20T14:41:36.062Z,47.64
2022-09-20T14:44:01.950Z,46.72
2022-09-20T14:46:29.744Z,47.18
2022-09-20T14:48:58.203Z,47.51
2022-09-20T14:51:24.734Z,49.77
2022-09-20T14:53:51.836Z,49.27
2022-09-20T14:56:33.222Z,49.10
2022-09-20T14:59:17.764Z,47.93
2022-09-20T15:01:44.216Z,48.11
2022-09-20T15:04:14.536Z,48.66
2022-09-20T15:06:40.235Z,48.06
2022-09-20T15:09:05.866Z,47.04
2022-09-20T15:11:31.404Z,47.36
2022-09-20T15:13:56.956Z,47.77
2022-09-20T15:16:22.550Z,47.61
2022-09-20T15:18:48.107Z,47.92
2022-09-20T15:21:13.656Z,47.13
2022-09-20T15:23:39.439Z,46.80
2022-09-20T15:26:05.395Z,47.33
2022-09-20T15:28:32.422Z,47.34
2022-09-20T15:30:58.067Z,47.53
2022-09-20T15:33:23.611Z,47.32
2022-09-20T15:35:49.174Z,47.18
2022-09-20T15:38:16.183Z,47.35
2022-09-20T15:40:42.020Z,47.29
2022-09-20T15:43:08.714Z,48.74
2022-09-20T15:45:35.127Z,47.35
2022-09-20T15:48:02.202Z,47.24
2022-09-20T15:50:27.763Z,47.33
2022-09-20T15:52:56.821Z,47.49
2022-09-20T15:55:24.853Z,47.49
2022-09-20T15:57:50.407Z,47.23
2022-09-20T16:00:17.290Z,47.38
2022-09-20T16:02:43.560Z,47.50
2022-09-20T16:05:10.152Z,47.55
2022-09-20T16:07:35.770Z,47.40
2022-09-20T16:10:01.318Z,47.42
2022-09-20T16:12:26.869Z,47.30
2022-09-20T16:14:52.626Z,47.43
2022-09-20T16:17:18.694Z,47.42
2022-09-20T16:19:45.562Z,47.83
2022-09-20T16:22:11.735Z,47.52
2022-09-20T16:24:37.284Z,47.53
2022-09-20T16:27:04.055Z,47.61
2022-09-20T16:29:29.795Z,47.62
2022-09-20T16:31:56.727Z,47.53
2022-09-20T16:34:30.781Z,47.59
2022-09-20T16:37:00.441Z,47.69
2022-09-20T16:39:26.926Z,47.50
2022-09-20T16:41:54.906Z,47.65
2022-09-20T16:44:20.449Z,47.57
2022-09-20T16:46:46.434Z,47.58
2022-09-20T16:49:12.617Z,47.67
2022-09-20T16:51:39.358Z,47.63
2022-09-20T16:54:06.055Z,47.63
2022-09-20T16:56:33.575Z,47.75
2022-09-20T16:59:00.272Z,47.74
2022-09-20T17:01:25.821Z,47.67
2022-09-20T17:03:51.798Z,47.58
2022-09-20T17:06:18.307Z,47.82
2022-09-20T17:08:45.997Z,47.81
2022-09-20T17:11:14.166Z,47.78
2022-09-20T17:13:40.611Z,47.83
2022-09-20T17:16:08.512Z,47.77
2022-09-20T17:18:34.239Z,47.67
2022-09-20T17:21:04.222Z,47.81
2022-09-20T17:23:32.563Z,47.79
2022-09-20T17:26:04.116Z,47.72
2022-09-20T17:28:32.967Z,47.68
2022-09-20T17:30:59.715Z,47.82
2022-09-20T17:33:27.632Z,47.62
2022-09-20T17:35:53.178Z,47.56
2022-09-20T17:38:20.311Z,47.68
2022-09-20T17:40:45.855Z,47.87
2022-09-20T17:43:11.396Z,47.86
2022-09-20T17:45:36.941Z,47.87
2022-09-20T17:48:03.103Z,47.89
2022-09-20T17:50:30.389Z,47.92
2022-09-20T17:52:55.928Z,47.83
2022-09-20T17:55:22.927Z,47.87
2022-09-20T17:57:48.747Z,47.89
2022-09-20T18:00:14.290Z,47.82
2022-09-20T18:02:40.008Z,47.86
2022-09-20T18:05:05.646Z,47.84
2022-09-20T18:07:33.019Z,47.90
2022-09-20T18:09:58.735Z,47.93
2022-09-20T18:12:24.271Z,47.97
2022-09-20T18:14:49.816Z,47.97
2022-09-20T18:17:15.362Z,47.84
2022-09-20T18:19:43.568Z,47.78
2022-09-20T18:22:09.102Z,47.67
2022-09-20T18:24:34.657Z,48.06
2022-09-20T18:27:00.200Z,47.83
2022-09-20T18:29:27.536Z,47.99
2022-09-20T18:31:54.754Z,47.95
2022-09-20T18:34:22.434Z,48.03
2022-09-20T18:36:52.123Z,48.07
2022-09-20T18:39:19.747Z,48.11
2022-09-20T18:41:45.283Z,48.28
2022-09-20T18:44:13.553Z,48.04
2022-09-20T18:46:39.675Z,47.91
2022-09-20T18:49:06.103Z,48.10
2022-09-20T18:51:34.778Z,47.88
2022-09-20T18:54:03.303Z,48.15
2022-09-20T18:56:31.420Z,48.23
2022-09-20T18:58:58.048Z,48.14
2022-09-20T19:01:43.614Z,48.09
2022-09-20T19:04:12.660Z,48.13
2022-09-20T19:06:41.103Z,48.13
2022-09-20T19:09:09.743Z,48.16
2022-09-20T19:11:38.237Z,48.01
2022-09-20T19:14:09.840Z,48.35
2022-09-20T19:16:36.470Z,47.99
2022-09-20T19:19:06.544Z,48.18
2022-09-20T19:21:51.987Z,48.06
2022-09-20T19:24:24.223Z,48.25
2022-09-20T19:26:49.847Z,48.16
2022-09-20T19:29:18.155Z,48.06
2022-09-20T19:31:44.583Z,48.07
2022-09-20T19:34:12.419Z,48.09
2022-09-20T19:36:43.614Z,48.28
2022-09-20T19:39:19.661Z,48.24
2022-09-20T19:41:49.998Z,48.20
2022-09-20T19:44:20.591Z,48.18
2022-09-20T19:46:51.514Z,48.13
2022-09-20T19:49:22.644Z,48.21
2022-09-20T19:51:48.198Z,48.19
2022-09-20T19:54:14.707Z,48.28
2022-09-20T19:56:52.040Z,48.27
2022-09-20T19:59:18.377Z,48.26
2022-09-20T20:01:44.086Z,48.33
2022-09-20T20:04:09.854Z,48.24
2022-09-20T20:06:37.240Z,48.10
2022-09-20T20:09:05.754Z,48.40
2022-09-20T20:11:35.631Z,48.28
2022-09-20T20:14:04.032Z,48.40
2022-09-20T20:16:36.010Z,48.27
2022-09-20T20:19:21.712Z,48.27
2022-09-20T20:21:50.052Z,48.30
2022-09-20T20:24:21.203Z,48.21
2022-09-20T20:26:46.899Z,48.28
2022-09-20T20:29:13.021Z,48.29
2022-09-20T20:31:38.572Z,48.31
2022-09-20T20:34:04.146Z,48.38
2022-09-20T20:36:29.687Z,48.37
2022-09-20T20:38:55.866Z,48.31
2022-09-20T20:41:21.478Z,48.35
2022-09-20T20:43:47.282Z,48.35
2022-09-20T20:46:13.812Z,48.33
2022-09-20T20:48:39.499Z,48.26
2022-09-20T20:51:08.856Z,48.27
2022-09-20T20:53:35.270Z,48.31
2022-09-20T20:56:01.867Z,48.38
2022-09-20T20:58:31.459Z,48.29
2022-09-20T21:01:16.977Z,48.59
2022-09-20T21:03:43.450Z,48.30
2022-09-20T21:06:09.460Z,48.40
2022-09-20T21:08:36.080Z,48.36
2022-09-20T21:11:02.633Z,48.47
2022-09-20T21:13:29.229Z,48.22
2022-09-20T21:16:01.767Z,48.48
2022-09-20T21:18:27.364Z,48.42
2022-09-20T21:20:52.904Z,48.36
2022-09-20T21:23:18.451Z,48.35
2022-09-20T21:25:44.264Z,48.36
2022-09-20T21:28:09.814Z,48.52
2022-09-20T21:30:35.355Z,48.43
2022-09-20T21:33:00.905Z,48.36
2022-09-20T21:35:26.963Z,48.41
2022-09-20T21:37:52.563Z,48.46
2022-09-20T21:40:18.154Z,48.38
2022-09-20T21:42:43.715Z,48.48
2022-09-20T21:45:10.210Z,48.39
2022-09-20T21:47:35.759Z,48.35
2022-09-20T21:50:01.296Z,48.52
2022-09-20T21:52:27.037Z,48.52
2022-09-20T21:54:52.571Z,48.54
2022-09-20T21:57:18.119Z,48.59
2022-09-20T21:59:43.656Z,48.31
2022-09-20T22:02:09.541Z,48.50
2022-09-20T22:04:35.211Z,48.26
2022-09-20T22:07:03.124Z,48.36
2022-09-20T22:09:28.667Z,48.44
2022-09-20T22:11:54.214Z,48.50
2022-09-20T22:14:19.997Z,48.49
2022-09-20T22:16:46.073Z,48.57
2022-09-20T22:19:12.439Z,48.36
2022-09-20T22:21:38.770Z,48.49
2022-09-20T22:24:05.349Z,48.34
2022-09-20T22:26:32.067Z,48.30
2022-09-20T22:28:57.608Z,48.64
2022-09-20T22:31:24.682Z,48.72
2022-09-20T22:33:51.339Z,48.53
2022-09-20T22:36:17.804Z,48.53
2022-09-20T22:38:43.588Z,48.43
2022-09-20T22:41:09.422Z,48.51
2022-09-20T22:43:35.142Z,48.36
2022-09-20T22:46:01.666Z,48.49
2022-09-20T22:48:28.054Z,48.65
2022-09-20T22:50:57.267Z,48.53
2022-09-20T22:53:22.807Z,48.45
2022-09-20T22:55:48.346Z,48.40
2022-09-20T22:58:13.891Z,48.61
2022-09-20T23:00:39.428Z,48.43
2022-09-20T23:03:04.982Z,48.52
2022-09-20T23:05:30.523Z,48.57
2022-09-20T23:07:56.066Z,48.60
2022-09-20T23:10:21.606Z,48.50
2022-09-20T23:12:50.441Z,48.66
2022-09-20T23:15:16.001Z,48.49
2022-09-20T23:17:41.556Z,48.60
2022-09-20T23:20:07.252Z,48.55
2022-09-20T23:22:32.803Z,48.49
2022-09-20T23:24:58.340Z,48.61
2022-09-20T23:27:23.890Z,48.56
2022-09-20T23:29:49.435Z,48.60
2022-09-20T23:32:14.964Z,48.68
2022-09-20T23:34:40.517Z,48.64
2022-09-20T23:37:06.075Z,48.73
2022-09-20T23:39:31.624Z,48.65
2022-09-20T23:41:57.155Z,48.49
2022-09-20T23:44:22.703Z,48.73
2022-09-20T23:46:48.236Z,48.59
2022-09-20T23:49:13.780Z,48.61
2022-09-20T23:51:39.337Z,48.55
2022-09-20T23:54:04.870Z,48.71
2022-09-20T23:56:30.419Z,48.67
2022-09-20T23:58:55.960Z,48.55
